NZOH/OHA METAR and TAF weather

Enter ICAO airport designator
Station Type Date Time Source
NZOH METAR 2020/06/27 19:00 UTC NOAA

NZOH 271900Z 31012KT 10KM SHRA SCT020 SCT030 BKN060 12/11 Q1004 BECMG NSW


Station Type Date Time Source
NZOH Decoded METAR 2020/06/27 19:00 UTC NOAA

Ohakea, New Zealand (NZOH) 40-12S 175-22E 52M
Jun 27, 2020 - 03:00 PM EDT / 2020.06.27 1900 UTC
Wind: from the NW (310 degrees) at 14 MPH (12 KT):0
Sky conditions: mostly cloudy
Weather: rain showers
Temperature: 53 F (12 C)
Dew Point: 51 F (11 C)
Relative Humidity: 93%
Pressure (altimeter): 29.65 in. Hg (1004 hPa)
ob: NZOH 271900Z 31012KT 10KM SHRA SCT020 SCT030 BKN060 12/11 Q1004 BECMG NSW
cycle: 19

Station Type Date Time Source
NZOH TAF 2007/12/14 04:59 UTC NOAA

TAF NZOH 140459Z 140606 11020KT 30KM SCT080 BECMH 0911 03008KT
BECMG 2224 27012KT

Example: see airport list